Time;durP1;ratioP1;P1;durP2;ratioP2;P2;SDS_P1;SDS_P2;PMS_P1;PMS_P2;Temp;Humidity;BMP_temperature;BMP_pressure;BME280_temperature;BME280_humidity;BME280_pressure;Samples;Min_cycle;Max_cycle;Signal;HPM_P1;HPM_P2
2021/08/22 00:00:28;;;;;;;20.33;14.65;;;;;;;;;;1083299;54;20084;-61
2021/08/22 00:01:29;;;;;;;20.40;14.57;;;;;;;;;;1083244;54;20043;-61
2021/08/22 00:02:33;;;;;;;22.55;15.05;;;;;;;;;;1083288;54;20027;-60
2021/08/22 00:03:34;;;;;;;20.85;14.60;;;;;;;;;;1083260;54;20034;-60
2021/08/22 00:04:37;;;;;;;20.02;14.50;;;;;;;;;;1083172;54;20029;-60
2021/08/22 00:05:38;;;;;;;19.65;14.18;;;;;;;;;;1083724;39;20424;-60
2021/08/22 00:06:42;;;;;;;17.50;15.40;;;;;;;;;;1083303;54;20030;-60
2021/08/22 00:07:43;;;;;;;19.58;14.40;;;;;;;;;;1083273;54;20061;-61
2021/08/22 00:08:47;;;;;;;24.60;16.60;;;;;;;;;;1083736;39;20413;-60
2021/08/22 00:09:48;;;;;;;21.08;14.35;;;;;;;;;;1083237;47;20026;-62
2021/08/22 00:10:52;;;;;;;21.67;15.43;;;;;;;;;;1083227;54;20027;-60
2021/08/22 00:11:55;;;;;;;19.23;15.52;;;;;;;;;;1083252;54;20026;-60
2021/08/22 00:12:59;;;;;;;20.63;14.85;;;;;;;;;;1083229;47;20084;-60
2021/08/22 00:14:00;;;;;;;18.63;14.90;;;;;;;;;;1083323;54;20026;-60
2021/08/22 00:15:04;;;;;;;20.17;16.27;;;;;;;;;;1083197;54;20037;-60
2021/08/22 00:16:05;;;;;;;20.98;15.73;;;;;;;;;;1083223;54;20027;-62
2021/08/22 00:17:08;;;;;;;21.83;14.70;;;;;;;;;;1083247;54;20078;-60
2021/08/22 00:18:09;;;;;;;17.38;14.57;;;;;;;;;;1083718;39;20444;-60
2021/08/22 00:19:13;;;;;;;20.55;15.27;;;;;;;;;;1083261;54;20030;-60
2021/08/22 00:20:14;;;;;;;20.30;14.93;;;;;;;;;;1083260;54;20033;-60
2021/08/22 00:21:18;;;;;;;22.75;15.88;;;;;;;;;;1083265;54;20048;-60
2021/08/22 00:22:19;;;;;;;18.85;15.18;;;;;;;;;;1083670;39;20406;-60
2021/08/22 00:23:22;;;;;;;21.33;15.82;;;;;;;;;;1083294;54;20037;-60
2021/08/22 00:24:23;;;;;;;21.73;15.18;;;;;;;;;;1083889;31;20536;-62
2021/08/22 00:25:27;;;;;;;23.88;16.42;;;;;;;;;;1083287;54;20050;-60
2021/08/22 00:26:35;;;;;;;;;;;;;;;;;;1083457;54;20027;-61
2021/08/22 00:27:41;;;;;;;20.98;14.75;;;;;;;;;;1083712;39;20325;-60
2021/08/22 00:28:42;;;;;;;19.92;14.98;;;;;;;;;;1083303;54;20069;-60
2021/08/22 00:29:45;;;;;;;17.35;14.73;;;;;;;;;;1083261;54;20027;-60
2021/08/22 00:30:47;;;;;;;22.00;15.40;;;;;;;;;;1083226;54;20034;-60
2021/08/22 00:31:50;;;;;;;21.88;16.55;;;;;;;;;;1083329;54;20129;-60
2021/08/22 00:32:51;;;;;;;21.65;15.35;;;;;;;;;;1083250;54;20028;-60
2021/08/22 00:33:55;;;;;;;19.20;14.20;;;;;;;;;;1083278;54;20033;-60
2021/08/22 00:34:56;;;;;;;20.25;15.85;;;;;;;;;;1083164;54;20042;-60
2021/08/22 00:35:59;;;;;;;18.33;15.27;;;;;;;;;;1082932;54;20037;-60
2021/08/22 00:37:00;;;;;;;20.17;15.77;;;;;;;;;;1082955;54;20026;-60
2021/08/22 00:38:04;;;;;;;21.15;15.25;;;;;;;;;;1083256;54;20029;-60
2021/08/22 00:39:05;;;;;;;22.48;16.50;;;;;;;;;;1083226;54;20631;-60
2021/08/22 00:40:09;;;;;;;21.05;16.73;;;;;;;;;;1083231;54;20031;-61
2021/08/22 00:41:12;;;;;;;21.70;16.92;;;;;;;;;;1083663;39;20448;-61
2021/08/22 00:42:15;;;;;;;20.48;16.30;;;;;;;;;;1083204;54;20066;-60
2021/08/22 00:43:19;;;;;;;20.80;16.08;;;;;;;;;;1083226;54;20113;-60
2021/08/22 00:44:23;;;;;;;18.92;15.18;;;;;;;;;;1083194;54;20049;-60
2021/08/22 00:45:24;;;;;;;20.70;16.23;;;;;;;;;;1083184;54;20033;-61
2021/08/22 00:46:38;;;;;;;22.55;16.70;;;;;;;;;;1083273;54;20030;-60
2021/08/22 00:47:40;;;;;;;19.15;15.43;;;;;;;;;;1083257;54;20126;-62
2021/08/22 00:48:45;;;;;;;21.67;15.60;;;;;;;;;;1083628;39;20440;-61
2021/08/22 00:49:46;;;;;;;21.15;16.83;;;;;;;;;;1083203;54;20154;-61
2021/08/22 00:50:51;;;;;;;22.90;16.88;;;;;;;;;;1083225;54;20057;-60
2021/08/22 00:51:52;;;;;;;23.95;16.30;;;;;;;;;;1083227;54;20030;-61
2021/08/22 00:52:56;;;;;;;21.92;15.75;;;;;;;;;;1083170;54;20031;-60
2021/08/22 00:53:57;;;;;;;20.15;15.55;;;;;;;;;;1083163;54;20049;-60
2021/08/22 00:55:01;;;;;;;19.42;15.23;;;;;;;;;;1083132;54;20033;-60
2021/08/22 00:56:04;;;;;;;20.35;15.85;;;;;;;;;;1083641;39;20440;-61
2021/08/22 00:57:07;;;;;;;21.85;16.63;;;;;;;;;;1083158;54;20036;-60
2021/08/22 00:58:08;;;;;;;21.25;16.00;;;;;;;;;;1083181;54;20049;-61
2021/08/22 00:59:18;;;;;;;19.90;15.93;;;;;;;;;;1083263;54;20030;-61
2021/08/22 01:00:19;;;;;;;19.30;15.30;;;;;;;;;;1083178;54;20022;-60
2021/08/22 01:01:25;;;;;;;20.60;15.07;;;;;;;;;;1083217;54;20559;-60
2021/08/22 01:02:29;;;;;;;18.42;15.23;;;;;;;;;;1083651;39;20429;-60
2021/08/22 01:03:39;;;;;;;19.00;14.55;;;;;;;;;;1083151;54;20118;-61
2021/08/22 01:04:50;;;;;;;20.73;15.75;;;;;;;;;;1083216;54;20026;-60
2021/08/22 01:06:05;;;;;;;21.48;15.55;;;;;;;;;;1083222;54;20030;-61
2021/08/22 01:07:15;;;;;;;21.17;15.70;;;;;;;;;;1083183;54;20120;-60
2021/08/22 01:08:25;;;;;;;17.58;14.57;;;;;;;;;;1083147;54;20034;-60
2021/08/22 01:09:29;;;;;;;;;;;;;;;;;;1083293;54;20110;-60
2021/08/22 01:10:33;;;;;;;22.40;15.32;;;;;;;;;;1083641;39;20364;-60
2021/08/22 01:11:40;;;;;;;19.70;15.52;;;;;;;;;;1083231;54;20034;-60
2021/08/22 01:12:58;;;;;;;20.77;15.23;;;;;;;;;;1083196;54;20528;-60
2021/08/22 01:14:05;;;;;;;20.00;14.68;;;;;;;;;;1083194;54;20030;-60
2021/08/22 01:15:12;;;;;;;19.50;14.98;;;;;;;;;;1083209;54;20029;-61
2021/08/22 01:16:17;;;;;;;19.40;14.93;;;;;;;;;;1083098;54;20038;-60
2021/08/22 01:17:23;;;;;;;20.67;15.00;;;;;;;;;;1083068;54;20057;-60
2021/08/22 01:18:27;;;;;;;21.42;15.18;;;;;;;;;;1083150;47;20118;-60
2021/08/22 01:19:52;;;;;;;18.67;14.43;;;;;;;;;;1083156;54;20027;-60
2021/08/22 01:21:04;;;;;;;18.65;14.82;;;;;;;;;;1083170;54;20030;-60
2021/08/22 01:22:10;;;;;;;21.20;15.15;;;;;;;;;;1083133;54;20118;-61
2021/08/22 01:23:12;;;;;;;23.80;16.45;;;;;;;;;;1083177;54;20130;-61
2021/08/22 01:24:20;;;;;;;23.17;16.58;;;;;;;;;;1083085;54;20118;-60
2021/08/22 01:25:21;;;;;;;20.83;15.20;;;;;;;;;;1083208;54;20022;-61
2021/08/22 01:26:28;;;;;;;22.52;16.35;;;;;;;;;;1083098;46;20026;-60
2021/08/22 01:27:30;;;;;;;20.38;15.73;;;;;;;;;;1083183;54;20026;-60
2021/08/22 01:28:34;;;;;;;19.42;14.80;;;;;;;;;;1083111;47;20027;-61
2021/08/22 01:29:42;;;;;;;21.35;15.18;;;;;;;;;;1083153;54;20121;-61
2021/08/22 01:30:49;;;;;;;21.95;15.95;;;;;;;;;;1083130;54;20030;-60
2021/08/22 01:31:54;;;;;;;23.27;16.17;;;;;;;;;;1083142;54;20039;-60
2021/08/22 01:32:58;;;;;;;21.38;15.75;;;;;;;;;;1083174;54;20045;-60
2021/08/22 01:34:03;;;;;;;20.98;14.68;;;;;;;;;;1083135;54;20034;-60
2021/08/22 01:35:07;;;;;;;19.33;14.88;;;;;;;;;;1083839;31;20508;-60
2021/08/22 01:36:11;;;;;;;20.70;15.65;;;;;;;;;;1083152;54;20086;-60
2021/08/22 01:37:14;;;;;;;18.45;14.70;;;;;;;;;;1083162;54;20049;-62
2021/08/22 01:38:19;;;;;;;21.95;15.30;;;;;;;;;;1083156;54;20077;-60
2021/08/22 01:39:20;;;;;;;17.92;13.90;;;;;;;;;;1083148;54;20126;-60
2021/08/22 01:40:25;;;;;;;19.50;14.18;;;;;;;;;;1083133;54;20030;-60
2021/08/22 01:41:26;;;;;;;21.33;14.20;;;;;;;;;;1083148;54;20030;-60
2021/08/22 01:42:32;;;;;;;21.52;13.85;;;;;;;;;;1083129;54;20033;-61
2021/08/22 01:43:34;;;;;;;19.45;14.55;;;;;;;;;;1083119;54;20038;-60
2021/08/22 01:44:40;;;;;;;19.30;14.82;;;;;;;;;;1083066;54;20031;-60
2021/08/22 01:45:42;;;;;;;16.15;13.48;;;;;;;;;;1083209;54;20142;-60
2021/08/22 01:46:46;;;;;;;17.65;14.25;;;;;;;;;;1083125;54;20033;-60
2021/08/22 01:47:48;;;;;;;22.17;14.13;;;;;;;;;;1083160;54;20022;-60
2021/08/22 01:48:55;;;;;;;22.95;15.10;;;;;;;;;;1083108;54;20078;-60
2021/08/22 01:49:56;;;;;;;20.02;13.85;;;;;;;;;;1083147;54;20057;-60
2021/08/22 01:51:01;;;;;;;18.98;13.50;;;;;;;;;;1083601;39;20441;-60
2021/08/22 01:52:04;;;;;;;19.13;14.43;;;;;;;;;;1083124;54;20026;-62
2021/08/22 01:53:08;;;;;;;17.27;13.77;;;;;;;;;;1083143;54;20061;-60
2021/08/22 01:54:10;;;;;;;17.13;13.18;;;;;;;;;;1083534;39;20525;-60
2021/08/22 01:55:14;;;;;;;17.90;13.13;;;;;;;;;;1083859;31;20521;-61
2021/08/22 01:56:17;;;;;;;16.95;12.35;;;;;;;;;;1083095;54;20125;-61
2021/08/22 01:57:22;;;;;;;18.83;13.82;;;;;;;;;;1083532;39;20429;-60
2021/08/22 01:58:24;;;;;;;19.60;13.48;;;;;;;;;;1083086;54;20584;-60
2021/08/22 01:59:28;;;;;;;19.27;13.55;;;;;;;;;;1083141;54;20053;-60
2021/08/22 02:00:29;;;;;;;19.30;13.88;;;;;;;;;;1083090;54;20533;-60
2021/08/22 02:01:32;;;;;;;18.90;13.50;;;;;;;;;;1083066;54;20054;-60
2021/08/22 02:02:33;;;;;;;16.88;13.07;;;;;;;;;;1083571;39;20445;-61
2021/08/22 02:03:41;;;;;;;19.65;14.00;;;;;;;;;;1083113;54;20022;-62
2021/08/22 02:04:49;;;;;;;16.15;12.73;;;;;;;;;;1083008;54;20022;-60
2021/08/22 02:05:57;;;;;;;15.85;12.05;;;;;;;;;;1083608;39;20416;-62
2021/08/22 02:07:03;;;;;;;15.43;12.20;;;;;;;;;;1083130;54;20022;-60
2021/08/22 02:08:11;;;;;;;15.95;13.05;;;;;;;;;;1083126;54;20026;-62
2021/08/22 02:09:13;;;;;;;19.15;12.77;;;;;;;;;;1083150;54;20061;-60
2021/08/22 02:10:22;;;;;;;16.85;12.85;;;;;;;;;;1083516;39;20432;-60
2021/08/22 02:11:26;;;;;;;15.40;12.50;;;;;;;;;;1083145;54;20333;-61
2021/08/22 02:12:30;;;;;;;16.35;12.05;;;;;;;;;;1083065;54;20030;-60
2021/08/22 02:13:36;;;;;;;16.75;12.50;;;;;;;;;;1083065;54;20030;-60
2021/08/22 02:14:43;;;;;;;16.15;11.65;;;;;;;;;;1083052;54;20027;-60
2021/08/22 02:15:45;;;;;;;15.00;12.05;;;;;;;;;;1083075;54;20027;-60
2021/08/22 02:16:51;;;;;;;15.52;11.80;;;;;;;;;;1082798;54;20532;-60
2021/08/22 02:17:56;;;;;;;15.95;11.23;;;;;;;;;;1082866;54;20635;-60
2021/08/22 02:19:01;;;;;;;18.80;12.52;;;;;;;;;;1083130;54;20041;-60
2021/08/22 02:20:06;;;;;;;15.90;11.52;;;;;;;;;;1083497;39;20505;-60
2021/08/22 02:21:10;;;;;;;14.93;12.07;;;;;;;;;;1083095;54;20053;-60
2021/08/22 02:22:12;;;;;;;16.67;12.10;;;;;;;;;;1083084;54;20049;-60
2021/08/22 02:23:16;;;;;;;16.23;12.52;;;;;;;;;;1083043;54;20041;-60
2021/08/22 02:24:17;;;;;;;16.25;11.85;;;;;;;;;;1082891;49;20049;-62
2021/08/22 02:25:21;;;;;;;17.67;12.43;;;;;;;;;;1082917;54;20118;-60
2021/08/22 02:26:22;;;;;;;16.75;11.70;;;;;;;;;;1082917;54;20541;-60
2021/08/22 02:27:26;;;;;;;15.95;12.48;;;;;;;;;;1083320;39;20456;-62
2021/08/22 02:28:27;;;;;;;16.80;11.77;;;;;;;;;;1082979;54;20540;-60
2021/08/22 02:29:31;;;;;;;15.48;11.43;;;;;;;;;;1083027;54;20031;-60
2021/08/22 02:30:33;;;;;;;17.27;11.60;;;;;;;;;;1083652;39;20536;-60
2021/08/22 02:31:37;;;;;;;17.45;11.82;;;;;;;;;;1083311;54;20031;-60
2021/08/22 02:32:38;;;;;;;16.25;12.07;;;;;;;;;;1083281;54;20026;-60
2021/08/22 02:33:42;;;;;;;15.88;12.77;;;;;;;;;;1083771;39;20436;-60
2021/08/22 02:34:43;;;;;;;15.52;12.00;;;;;;;;;;1082976;47;20057;-60
2021/08/22 02:35:49;;;;;;;15.73;11.70;;;;;;;;;;1083027;54;20611;-61
2021/08/22 02:36:50;;;;;;;18.00;11.85;;;;;;;;;;1083312;54;20114;-62
2021/08/22 02:37:53;;;;;;;17.65;12.00;;;;;;;;;;1083310;54;20034;-60
2021/08/22 02:38:55;;;;;;;19.02;11.55;;;;;;;;;;1083282;54;20026;-60
2021/08/22 02:39:59;;;;;;;16.35;12.07;;;;;;;;;;1083297;54;20027;-60
2021/08/22 02:41:00;;;;;;;17.85;12.05;;;;;;;;;;1083306;54;20030;-60
2021/08/22 02:42:04;;;;;;;16.63;11.65;;;;;;;;;;1083343;54;20023;-60
2021/08/22 02:43:08;;;;;;;16.15;12.10;;;;;;;;;;1083284;54;20033;-60
2021/08/22 02:44:09;;;;;;;14.93;11.27;;;;;;;;;;1083267;54;20027;-60
2021/08/22 02:45:13;;;;;;;15.90;11.82;;;;;;;;;;1083684;39;20413;-60
2021/08/22 02:46:14;;;;;;;15.18;12.20;;;;;;;;;;1083714;39;20444;-60
2021/08/22 02:47:17;;;;;;;16.13;11.48;;;;;;;;;;1083300;54;20030;-61
2021/08/22 02:48:18;;;;;;;16.77;11.20;;;;;;;;;;1083289;54;20129;-60
2021/08/22 02:49:22;;;;;;;16.25;11.38;;;;;;;;;;1084062;31;20557;-60
2021/08/22 02:50:24;;;;;;;16.60;10.57;;;;;;;;;;1083266;54;20117;-60
2021/08/22 02:51:30;;;;;;;15.98;11.85;;;;;;;;;;1083285;54;20026;-60
2021/08/22 02:52:31;;;;;;;17.10;10.90;;;;;;;;;;1083307;54;20034;-60
2021/08/22 02:53:35;;;;;;;14.82;10.45;;;;;;;;;;1083240;54;20030;-60
2021/08/22 02:54:39;;;;;;;13.32;10.95;;;;;;;;;;1083239;54;20118;-60
2021/08/22 02:55:39;;;;;;;13.13;10.48;;;;;;;;;;1083235;54;20027;-60
2021/08/22 02:56:43;;;;;;;15.18;11.40;;;;;;;;;;1083300;54;20031;-60
2021/08/22 02:57:44;;;;;;;16.13;11.23;;;;;;;;;;1083326;54;20049;-60
2021/08/22 02:58:47;;;;;;;14.52;10.32;;;;;;;;;;1083279;54;20544;-60
2021/08/22 02:59:48;;;;;;;14.75;10.32;;;;;;;;;;1083283;54;20668;-60
2021/08/22 03:00:52;;;;;;;14.35;10.50;;;;;;;;;;1083325;54;20030;-61
2021/08/22 03:01:53;;;;;;;14.85;11.15;;;;;;;;;;1083255;54;20130;-60
2021/08/22 03:02:56;;;;;;;13.70;10.15;;;;;;;;;;1083332;54;20027;-60
2021/08/22 03:03:59;;;;;;;14.60;10.75;;;;;;;;;;1083265;54;20053;-60
2021/08/22 03:05:02;;;;;;;16.80;11.05;;;;;;;;;;1083183;54;20073;-60
2021/08/22 03:06:03;;;;;;;17.02;10.70;;;;;;;;;;1083319;54;20033;-60
2021/08/22 03:07:09;;;;;;;15.60;11.05;;;;;;;;;;1083275;54;20026;-62
2021/08/22 03:08:10;;;;;;;16.75;10.60;;;;;;;;;;1083266;54;20046;-61
2021/08/22 03:09:14;;;;;;;13.68;9.98;;;;;;;;;;1083252;54;20148;-61
2021/08/22 03:10:15;;;;;;;15.88;9.90;;;;;;;;;;1083231;54;20038;-61
2021/08/22 03:11:19;;;;;;;13.90;9.57;;;;;;;;;;1083279;54;20027;-60
2021/08/22 03:12:20;;;;;;;14.05;9.25;;;;;;;;;;1083254;54;20041;-61
2021/08/22 03:13:24;;;;;;;10.73;8.50;;;;;;;;;;1083259;54;20026;-60
2021/08/22 03:14:25;;;;;;;13.57;9.02;;;;;;;;;;1083180;54;20026;-60
2021/08/22 03:15:28;;;;;;;13.15;9.40;;;;;;;;;;1083225;54;20053;-61
2021/08/22 03:16:29;;;;;;;11.95;9.25;;;;;;;;;;1083237;54;20050;-60
2021/08/22 03:17:33;;;;;;;15.35;9.07;;;;;;;;;;1083218;54;20118;-60
2021/08/22 03:18:37;;;;;;;12.20;9.30;;;;;;;;;;1083237;54;20041;-60
2021/08/22 03:19:38;;;;;;;14.60;9.30;;;;;;;;;;1083226;54;20038;-60
2021/08/22 03:20:41;;;;;;;12.88;8.85;;;;;;;;;;1083350;54;20171;-60
2021/08/22 03:21:45;;;;;;;13.52;8.93;;;;;;;;;;1083363;54;20019;-60
2021/08/22 03:22:51;;;;;;;14.05;9.25;;;;;;;;;;1083330;54;20026;-60
2021/08/22 03:23:52;;;;;;;14.30;8.90;;;;;;;;;;1083355;54;20023;-61
